Time;durP1;ratioP1;P1;durP2;ratioP2;P2;SDS_P1;SDS_P2;PMS_P1;PMS_P2;Temp;Humidity;BMP_temperature;BMP_pressure;BME280_temperature;BME280_humidity;BME280_pressure;Samples;Min_cycle;Max_cycle;Signal;HPM_P1;HPM_P2
2021/12/01 00:02:05;;;;;;;2.90;1.90;;;;;;;-2.58;94.12;99674.00;4978739;28;20038;-78
2021/12/01 00:04:31;;;;;;;5.13;2.30;;;;;;;-2.64;94.70;99671.94;4980681;28;20031;-77
2021/12/01 00:06:57;;;;;;;4.78;2.22;;;;;;;-2.73;94.47;99657.00;4975876;28;20073;-77
2021/12/01 00:09:23;;;;;;;4.65;1.70;;;;;;;-2.53;94.74;99695.47;4959898;28;20033;-77
2021/12/01 00:11:48;;;;;;;5.80;2.58;;;;;;;-2.58;94.75;99689.81;4960516;28;20026;-78
2021/12/01 00:14:14;;;;;;;5.45;3.08;;;;;;;-2.61;94.69;99687.47;4977891;28;20496;-77
2021/12/01 00:16:39;;;;;;;3.33;1.80;;;;;;;-2.61;94.67;99690.94;4977512;28;20037;-77
2021/12/01 00:19:05;;;;;;;4.53;1.80;;;;;;;-2.56;94.92;99690.50;4975860;28;20054;-77
2021/12/01 00:21:30;;;;;;;3.30;1.85;;;;;;;-2.49;94.54;99696.84;4971975;28;20046;-78
2021/12/01 00:23:56;;;;;;;6.25;2.20;;;;;;;-2.63;94.87;99678.88;4980961;28;20515;-78
2021/12/01 00:26:21;;;;;;;4.00;2.10;;;;;;;-2.74;94.73;99655.34;4977696;28;20046;-77
2021/12/01 00:28:47;;;;;;;2.78;2.08;;;;;;;-2.85;94.71;99632.63;4975714;28;20035;-78
2021/12/01 00:31:12;;;;;;;3.97;2.10;;;;;;;-2.63;95.07;99671.78;4959007;28;20045;-78
2021/12/01 00:33:40;;;;;;;4.03;2.00;;;;;;;-2.58;94.76;99674.00;4959557;28;20022;-78
2021/12/01 00:36:05;;;;;;;3.28;1.90;;;;;;;-2.72;94.86;99648.94;4991769;28;20038;-77
2021/12/01 00:38:31;;;;;;;3.47;2.00;;;;;;;-2.62;94.83;99668.22;4989586;28;20022;-78
2021/12/01 00:40:58;;;;;;;5.03;2.33;;;;;;;-2.98;94.89;99611.03;4959522;28;20070;-78
2021/12/01 00:43:25;;;;;;;4.30;2.25;;;;;;;-2.72;95.35;99656.00;4990956;28;20034;-77
2021/12/01 00:45:55;;;;;;;5.25;2.20;;;;;;;-2.68;95.38;99658.25;4959633;28;20026;-78
2021/12/01 00:48:21;;;;;;;5.90;2.63;;;;;;;-2.69;95.56;99655.72;4975568;28;20027;-77
2021/12/01 00:50:49;;;;;;;4.25;2.22;;;;;;;-2.71;95.43;99653.25;4976168;28;20038;-77
2021/12/01 00:53:14;;;;;;;6.50;3.28;;;;;;;-2.84;95.19;99634.31;4976821;28;20030;-78
2021/12/01 00:55:42;;;;;;;8.43;3.88;;;;;;;-2.95;95.51;99624.75;4976120;28;20035;-77
2021/12/01 00:58:08;;;;;;;7.47;2.95;;;;;;;-2.84;95.58;99635.13;4973611;28;20420;-77
2021/12/01 01:00:34;;;;;;;5.15;2.50;;;;;;;-2.95;95.37;99621.28;4955870;29;20023;-78
2021/12/01 01:02:59;;;;;;;4.15;2.35;;;;;;;-3.02;95.81;99607.03;4976066;28;20022;-78
2021/12/01 01:05:27;;;;;;;3.13;1.98;;;;;;;-2.88;95.48;99636.38;4960338;28;20027;-78
2021/12/01 01:07:54;;;;;;;7.88;3.13;;;;;;;-3.04;95.66;99609.81;4977404;28;20101;-78
2021/12/01 01:18:33;;;;;;;4.93;2.33;;;;;;;-3.10;95.90;99620.91;4977024;28;20065;-77
2021/12/01 01:20:59;;;;;;;5.40;2.53;;;;;;;-3.15;95.81;99617.84;4975438;28;20365;-78
2021/12/01 01:23:26;;;;;;;6.13;2.67;;;;;;;-3.17;96.35;99625.06;4975734;28;20029;-78
2021/12/01 01:25:53;;;;;;;4.05;2.40;;;;;;;-3.25;96.35;99614.41;4973945;28;20129;-78
2021/12/01 01:28:18;;;;;;;7.68;2.70;;;;;;;-3.20;96.62;99620.09;4975023;28;20037;-77
2021/12/01 01:30:44;;;;;;;4.45;2.40;;;;;;;-3.26;96.50;99615.38;4986396;28;20031;-78
2021/12/01 01:33:11;;;;;;;6.75;2.55;;;;;;;-3.23;96.38;99625.63;4971732;28;20035;-78
2021/12/01 01:35:37;;;;;;;3.55;1.90;;;;;;;-3.28;96.46;99626.03;4978705;28;20041;-78
2021/12/01 01:38:03;;;;;;;3.88;2.13;;;;;;;-3.37;96.61;99627.72;4964946;28;20038;-78
2021/12/01 01:40:28;;;;;;;3.88;2.25;;;;;;;-3.73;97.95;99591.59;4980363;28;20041;-78
2021/12/01 01:42:54;;;;;;;5.15;2.20;;;;;;;-3.44;97.49;99623.97;4977767;28;20113;-78
2021/12/01 01:45:19;;;;;;;3.53;2.33;;;;;;;-3.45;97.30;99617.03;4958384;28;20035;-77
2021/12/01 01:48:00;;;;;;;5.63;2.78;;;;;;;-3.65;97.22;99589.91;4974724;28;20039;-78
2021/12/01 01:50:36;;;;;;;14.18;5.93;;;;;;;-3.65;97.17;99595.16;4975512;28;20033;-78
2021/12/01 01:53:03;;;;;;;12.27;4.47;;;;;;;-3.71;97.75;99606.22;4974703;28;20544;-78
2021/12/01 01:55:29;;;;;;;8.27;3.30;;;;;;;-3.97;97.85;99582.28;4974386;28;20030;-78
2021/12/01 01:57:54;;;;;;;15.18;4.78;;;;;;;-4.05;97.60;99551.44;4972883;28;20031;-78
2021/12/01 02:00:20;;;;;;;27.17;8.68;;;;;;;-3.86;97.04;99579.53;4974910;28;20026;-78
2021/12/01 02:02:46;;;;;;;26.63;7.03;;;;;;;-3.78;97.27;99584.09;4974124;28;20031;-78
2021/12/01 02:05:12;;;;;;;4.40;2.40;;;;;;;-3.92;97.48;99574.81;4975427;28;20039;-77
2021/12/01 02:07:37;;;;;;;4.15;2.10;;;;;;;-3.94;97.44;99579.41;4975559;28;20031;-78
2021/12/01 02:10:04;;;;;;;3.40;2.00;;;;;;;-4.04;97.81;99565.38;4974972;28;20037;-77
2021/12/01 02:12:31;;;;;;;19.88;6.00;;;;;;;-3.99;97.31;99565.81;4974873;28;20027;-78
2021/12/01 02:14:56;;;;;;;21.08;5.90;;;;;;;-4.02;97.19;99566.09;4978221;28;20055;-78
2021/12/01 02:17:22;;;;;;;11.32;3.92;;;;;;;-3.99;96.79;99557.94;4973101;28;20027;-77
2021/12/01 02:19:52;;;;;;;5.35;2.63;;;;;;;-3.96;97.14;99559.47;4974711;28;20031;-78
2021/12/01 02:22:17;;;;;;;8.23;2.60;;;;;;;-3.91;96.83;99558.06;4974220;28;20499;-77
2021/12/01 02:24:46;;;;;;;14.77;3.78;;;;;;;-3.91;97.08;99546.72;4975853;28;20035;-77
2021/12/01 02:27:13;;;;;;;14.07;3.90;;;;;;;-4.07;96.74;99526.28;4982342;28;20027;-79
2021/12/01 02:29:39;;;;;;;11.73;4.30;;;;;;;-3.93;96.81;99549.50;4974626;28;20492;-78
2021/12/01 02:32:05;;;;;;;7.88;2.72;;;;;;;-4.12;96.64;99515.34;4974333;28;20058;-78
2021/12/01 02:34:34;;;;;;;11.48;3.80;;;;;;;-4.09;96.62;99523.78;4974580;28;20346;-78
2021/12/01 02:37:00;;;;;;;8.13;2.95;;;;;;;-4.01;96.61;99538.84;4958325;28;20027;-77
2021/12/01 02:39:28;;;;;;;7.80;2.83;;;;;;;-4.02;96.77;99538.03;4973838;28;20042;-78
2021/12/01 02:41:58;;;;;;;6.10;2.20;;;;;;;-3.96;96.48;99564.72;4974137;28;20031;-78
2021/12/01 02:44:25;;;;;;;7.38;2.35;;;;;;;-4.06;96.58;99541.06;4980123;28;20448;-79
2021/12/01 02:46:51;;;;;;;14.50;3.88;;;;;;;-4.02;96.99;99560.84;4976130;28;20030;-78
2021/12/01 02:49:22;;;;;;;9.43;3.03;;;;;;;-4.05;96.74;99556.69;4974978;28;20023;-77
2021/12/01 02:51:49;;;;;;;6.50;2.40;;;;;;;-4.11;97.01;99546.72;4972929;28;20023;-78
2021/12/01 02:54:16;;;;;;;9.38;3.10;;;;;;;-4.12;96.88;99534.56;4990389;28;20027;-77
2021/12/01 02:56:46;;;;;;;5.30;2.25;;;;;;;-4.42;96.82;99490.84;4974345;28;20039;-77
2021/12/01 02:59:11;;;;;;;11.65;4.03;;;;;;;-4.12;96.93;99537.19;4972915;28;20049;-78
2021/12/01 03:01:38;;;;;;;14.55;4.85;;;;;;;-4.14;96.91;99544.38;4982739;28;20053;-77
2021/12/01 03:04:04;;;;;;;16.75;5.00;;;;;;;-4.30;96.98;99518.66;4988087;28;20181;-78
2021/12/01 03:06:29;;;;;;;6.00;2.17;;;;;;;-4.17;97.10;99533.28;4957807;28;20086;-77
2021/12/01 03:08:57;;;;;;;7.75;2.72;;;;;;;-4.14;97.00;99531.25;4959911;28;20479;-78
2021/12/01 03:11:23;;;;;;;9.05;2.67;;;;;;;-4.15;96.83;99526.94;4976974;28;20018;-77
2021/12/01 03:13:49;;;;;;;5.85;2.30;;;;;;;-4.30;97.02;99502.88;4980033;28;20057;-78
2021/12/01 03:16:15;;;;;;;3.08;1.50;;;;;;;-4.23;97.30;99511.03;4979291;28;20117;-78
2021/12/01 03:18:43;;;;;;;4.57;1.70;;;;;;;-4.37;96.91;99469.41;4977831;28;20122;-78
2021/12/01 03:21:09;;;;;;;5.60;2.50;;;;;;;-4.11;96.85;99509.94;4978451;28;20090;-78
2021/12/01 03:23:35;;;;;;;7.82;3.42;;;;;;;-4.23;96.96;99484.78;4978019;28;20058;-77
2021/12/01 03:26:00;;;;;;;7.78;2.75;;;;;;;-4.12;96.98;99515.34;4976464;28;20054;-78
2021/12/01 03:28:26;;;;;;;6.45;2.97;;;;;;;-4.10;96.79;99510.78;4993029;28;20031;-78
2021/12/01 03:30:52;;;;;;;4.07;2.05;;;;;;;-4.16;97.04;99493.78;4978536;28;20102;-78
2021/12/01 03:33:20;;;;;;;5.57;2.22;;;;;;;-4.09;97.06;99491.44;4989731;28;20508;-77
2021/12/01 03:35:49;;;;;;;3.47;2.03;;;;;;;-4.56;97.04;99415.09;4960779;28;20101;-77
2021/12/01 03:38:16;;;;;;;2.70;1.30;;;;;;;-4.26;97.07;99464.88;4974191;28;20054;-78
2021/12/01 03:40:42;;;;;;;2.92;1.50;;;;;;;-4.54;97.01;99419.22;4978963;28;20022;-77
2021/12/01 03:43:07;;;;;;;2.83;1.48;;;;;;;-4.12;97.20;99484.63;4975747;28;20112;-78
2021/12/01 03:45:34;;;;;;;3.47;1.52;;;;;;;-4.11;97.32;99482.84;4977270;28;20034;-78
2021/12/01 03:47:59;;;;;;;5.30;1.77;;;;;;;-4.11;97.35;99475.78;4977928;28;20027;-78
2021/12/01 03:50:25;;;;;;;2.58;1.60;;;;;;;-4.16;97.18;99458.81;4979868;28;20030;-78
2021/12/01 03:52:51;;;;;;;3.65;1.60;;;;;;;-4.06;97.57;99459.63;4984252;28;20052;-78
2021/12/01 03:55:16;;;;;;;3.53;1.42;;;;;;;-4.06;97.04;99449.94;4975916;28;20039;-79
2021/12/01 03:57:42;;;;;;;4.40;2.10;;;;;;;-3.94;97.31;99458.53;4958744;28;20034;-78
2021/12/01 04:00:11;;;;;;;5.25;2.33;;;;;;;-4.17;97.07;99412.47;4976187;28;20126;-78
2021/12/01 04:02:36;;;;;;;2.70;1.45;;;;;;;-4.13;97.91;99429.63;4976561;28;20049;-78
2021/12/01 04:05:03;;;;;;;1.90;1.30;;;;;;;-4.02;98.46;99439.97;4976883;28;20026;-78
2021/12/01 04:07:28;;;;;;;3.67;1.40;;;;;;;-4.06;98.59;99433.34;4959722;28;20155;-77
2021/12/01 04:09:54;;;;;;;3.05;1.25;;;;;;;-4.14;98.96;99425.31;4959901;28;20019;-78
2021/12/01 04:12:19;;;;;;;1.90;1.40;;;;;;;-4.23;98.76;99405.16;4976559;28;20468;-78
2021/12/01 04:14:45;;;;;;;4.15;1.20;;;;;;;-4.27;98.64;99408.06;4959674;28;20046;-78
2021/12/01 04:17:11;;;;;;;2.88;1.20;;;;;;;-4.10;98.60;99426.72;4975243;28;20117;-77
2021/12/01 04:19:37;;;;;;;2.85;1.38;;;;;;;-4.18;98.24;99398.50;4959545;28;20420;-78
2021/12/01 04:22:03;;;;;;;4.25;1.52;;;;;;;-4.10;97.69;99389.97;4974878;28;20035;-77
2021/12/01 04:24:30;;;;;;;3.00;1.30;;;;;;;-3.93;97.98;99418.13;4977487;28;20034;-77
2021/12/01 04:26:56;;;;;;;3.03;1.55;;;;;;;-3.84;97.68;99416.44;4976223;28;20035;-78
2021/12/01 04:29:22;;;;;;;2.38;1.33;;;;;;;-3.99;97.87;99386.34;4976721;28;20377;-78
2021/12/01 04:31:48;;;;;;;1.88;1.40;;;;;;;-3.85;98.98;99417.41;4977585;28;20041;-78
2021/12/01 04:34:14;;;;;;;4.82;1.27;;;;;;;-4.08;98.77;99375.69;4976482;28;20027;-78
2021/12/01 04:36:42;;;;;;;2.28;1.40;;;;;;;-3.71;98.71;99418.78;4959007;28;20034;-78
2021/12/01 04:39:11;;;;;;;2.70;1.33;;;;;;;-3.86;98.58;99395.56;4977346;28;20045;-78
2021/12/01 04:41:39;;;;;;;3.17;1.45;;;;;;;-3.80;98.86;99408.16;4979170;28;20030;-77
2021/12/01 04:44:11;;;;;;;1.83;1.30;;;;;;;-3.73;99.06;99413.66;4959722;28;20468;-78
2021/12/01 04:46:43;;;;;;;2.50;1.20;;;;;;;-3.65;98.69;99415.59;4975794;28;20034;-78
2021/12/01 04:49:11;;;;;;;2.22;1.30;;;;;;;-3.81;98.42;99388.09;4982001;28;20035;-79
2021/12/01 04:51:38;;;;;;;3.10;1.20;;;;;;;-3.52;98.07;99412.66;4978260;28;20026;-78
2021/12/01 04:54:03;;;;;;;1.92;1.20;;;;;;;-3.61;98.39;99415.16;4975500;28;20042;-77
2021/12/01 04:56:29;;;;;;;4.47;1.25;;;;;;;-3.66;98.33;99388.47;4974417;28;20169;-78
2021/12/01 04:58:55;;;;;;;3.40;1.35;;;;;;;-3.61;97.85;99390.66;4972046;28;20334;-78
2021/12/01 05:01:21;;;;;;;2.00;1.15;;;;;;;-3.41;98.02;99412.47;4976946;28;20037;-78
2021/12/01 05:03:46;;;;;;;3.92;1.33;;;;;;;-3.34;97.59;99411.75;4963012;28;20121;-77
2021/12/01 05:06:13;;;;;;;2.15;1.17;;;;;;;-3.39;97.65;99406.09;4974113;28;20049;-78
2021/12/01 05:08:39;;;;;;;5.10;1.45;;;;;;;-3.41;97.13;99386.16;4976229;28;20023;-78
2021/12/01 05:11:04;;;;;;;7.32;2.40;;;;;;;-3.25;97.49;99401.31;4959051;28;20465;-78
2021/12/01 05:13:30;;;;;;;3.00;1.20;;;;;;;-3.41;97.13;99371.25;4975842;28;20045;-77
2021/12/01 05:15:55;;;;;;;2.33;1.35;;;;;;;-3.28;97.03;99394.53;4974769;28;20082;-78
2021/12/01 05:18:21;;;;;;;2.60;1.45;;;;;;;-3.32;97.21;99374.78;4975602;28;20062;-78
2021/12/01 05:20:47;;;;;;;2.70;1.55;;;;;;;-3.28;97.17;99375.31;4974289;28;20118;-78
2021/12/01 05:23:15;;;;;;;2.55;1.40;;;;;;;-3.16;97.13;99393.41;4975035;28;20089;-78
2021/12/01 05:25:41;;;;;;;4.97;1.65;;;;;;;-3.17;97.12;99380.41;4975327;28;20034;-78
2021/12/01 05:28:07;;;;;;;3.13;1.30;;;;;;;-3.02;97.08;99386.00;4975264;28;20440;-78
2021/12/01 05:30:32;;;;;;;4.22;1.48;;;;;;;-3.10;96.86;99363.06;4975426;28;20042;-78
2021/12/01 05:33:04;;;;;;;1.60;1.13;;;;;;;-2.98;96.64;99363.66;4973751;28;20034;-78
2021/12/01 05:35:30;;;;;;;3.47;1.50;;;;;;;-2.96;96.90;99370.44;4962568;28;20030;-79
2021/12/01 05:37:56;;;;;;;4.05;1.35;;;;;;;-2.96;96.77;99359.91;4959635;28;20088;-79
2021/12/01 05:40:21;;;;;;;3.55;1.33;;;;;;;-3.06;96.71;99346.00;4977515;28;20042;-79
2021/12/01 05:42:47;;;;;;;2.67;1.17;;;;;;;-2.90;96.49;99361.13;4975780;28;20513;-79
2021/12/01 05:45:12;;;;;;;2.40;1.30;;;;;;;-2.93;96.01;99350.91;4976334;28;20031;-80
2021/12/01 05:47:38;;;;;;;4.15;1.33;;;;;;;-3.72;95.89;99204.22;4985525;28;20046;-79
2021/12/01 05:50:04;;;;;;;2.58;1.40;;;;;;;-2.88;96.42;99338.09;4967694;28;20453;-79
2021/12/01 05:52:29;;;;;;;2.40;1.42;;;;;;;-3.00;95.50;99326.97;4977745;28;20061;-79
2021/12/01 05:54:54;;;;;;;2.42;0.80;;;;;;;-2.84;95.64;99337.69;4975930;28;20026;-78
2021/12/01 05:57:20;;;;;;;2.95;1.30;;;;;;;-2.77;95.87;99344.97;4976917;28;20069;-78
2021/12/01 05:59:46;;;;;;;2.13;1.10;;;;;;;-2.73;95.83;99338.44;4976148;28;20031;-79
2021/12/01 06:02:12;;;;;;;4.43;1.58;;;;;;;-2.81;95.77;99322.53;4977166;28;20034;-80
2021/12/01 06:04:37;;;;;;;3.55;1.50;;;;;;;-2.64;95.70;99345.44;4948061;28;20224;-79
2021/12/01 06:07:03;;;;;;;3.55;1.70;;;;;;;-2.67;95.61;99348.38;4977034;28;20054;-80
2021/12/01 06:09:28;;;;;;;3.50;1.75;;;;;;;-2.65;95.33;99347.25;4956633;28;20465;-79
2021/12/01 06:11:54;;;;;;;3.08;1.55;;;;;;;-2.93;95.67;99300.91;4969239;28;20035;-79
2021/12/01 06:14:19;;;;;;;3.35;1.60;;;;;;;-2.63;95.58;99340.00;4955531;28;20445;-79
2021/12/01 06:16:46;;;;;;;2.92;1.10;;;;;;;-2.89;94.90;99324.13;4978323;28;20030;-79
2021/12/01 06:19:12;;;;;;;2.13;0.82;;;;;;;-2.96;94.92;99296.75;4981232;28;20042;-79
2021/12/01 06:21:38;;;;;;;4.05;1.38;;;;;;;-2.74;95.02;99321.00;4974087;28;20027;-79
2021/12/01 06:24:03;;;;;;;10.95;1.92;;;;;;;-2.65;94.86;99336.72;4974398;28;20030;-79
2021/12/01 06:26:29;;;;;;;3.60;1.30;;;;;;;-2.68;94.88;99336.16;4976013;28;20460;-79
2021/12/01 06:28:54;;;;;;;2.33;1.10;;;;;;;-2.72;94.48;99333.00;4943062;28;20464;-79
2021/12/01 06:31:20;;;;;;;2.38;1.00;;;;;;;-2.64;94.22;99322.56;4967989;28;20057;-78
2021/12/01 06:33:45;;;;;;;2.08;1.00;;;;;;;-2.90;94.29;99290.88;4975953;28;20034;-79
2021/12/01 06:36:11;;;;;;;3.38;1.40;;;;;;;-2.97;93.74;99278.50;4974675;28;20034;-79
2021/12/01 06:38:39;;;;;;;6.78;1.92;;;;;;;-2.78;94.05;99304.66;4978320;28;20085;-79
2021/12/01 06:41:05;;;;;;;1.48;1.02;;;;;;;-2.75;93.42;99306.16;4962633;28;20022;-79
2021/12/01 06:43:30;;;;;;;2.03;1.00;;;;;;;-2.76;93.66;99293.97;4980909;28;20092;-79
2021/12/01 06:45:55;;;;;;;2.33;1.42;;;;;;;-2.67;93.57;99296.53;4957965;28;20035;-79
2021/12/01 06:48:21;;;;;;;3.90;1.10;;;;;;;-2.80;93.50;99280.28;4942679;28;20034;-78
2021/12/01 06:50:46;;;;;;;3.33;1.63;;;;;;;-2.88;93.66;99267.91;4977857;28;20121;-78
2021/12/01 06:53:12;;;;;;;2.05;0.85;;;;;;;-2.90;93.78;99283.00;4957006;28;20022;-79
2021/12/01 06:55:37;;;;;;;2.97;1.73;;;;;;;-2.84;93.83;99271.03;4964408;28;20038;-78
2021/12/01 06:58:03;;;;;;;5.25;3.28;;;;;;;-2.83;93.36;99265.63;4979013;28;20119;-79
2021/12/01 07:00:30;;;;;;;5.57;3.55;;;;;;;-2.88;93.33;99252.09;4978043;28;20373;-79
2021/12/01 07:02:56;;;;;;;9.57;5.78;;;;;;;-2.86;92.99;99241.41;4976978;28;20105;-79
2021/12/01 07:05:21;;;;;;;7.60;5.32;;;;;;;-2.80;92.93;99253.97;4979567;28;20041;-79
2021/12/01 07:07:47;;;;;;;3.35;2.38;;;;;;;-2.70;92.78;99248.63;4976561;28;20036;-78
2021/12/01 07:10:13;;;;;;;3.00;1.73;;;;;;;-2.79;92.83;99231.09;4959304;28;20030;-79
2021/12/01 07:12:40;;;;;;;4.32;1.80;;;;;;;-2.73;92.73;99215.53;4958341;28;20027;-79
2021/12/01 07:15:07;;;;;;;3.17;1.30;;;;;;;-2.73;92.76;99236.59;4978758;28;20057;-79
2021/12/01 07:17:32;;;;;;;3.38;1.58;;;;;;;-2.75;92.61;99230.63;4976531;28;20058;-78
2021/12/01 07:19:58;;;;;;;3.95;1.50;;;;;;;-2.68;92.37;99212.41;4976175;28;20062;-78
2021/12/01 07:22:23;;;;;;;4.88;1.88;;;;;;;-2.70;92.94;99212.59;4976833;28;20030;-79
2021/12/01 07:24:49;;;;;;;3.60;1.40;;;;;;;-2.70;91.75;99217.03;4977033;28;20479;-79
2021/12/01 07:27:16;;;;;;;4.13;2.13;;;;;;;-2.72;92.59;99218.97;4959932;28;20038;-79
2021/12/01 07:29:42;;;;;;;6.55;1.77;;;;;;;-2.61;92.13;99230.09;4964521;28;20122;-78
2021/12/01 07:32:10;;;;;;;6.97;2.30;;;;;;;-2.58;92.30;99231.63;4977717;28;20023;-79
2021/12/01 07:34:41;;;;;;;2.00;1.00;;;;;;;-2.78;92.17;99224.84;4976343;28;20034;-79
2021/12/01 07:37:15;;;;;;;4.28;1.50;;;;;;;-2.84;92.17;99205.25;4961030;28;20030;-78
2021/12/01 07:39:41;;;;;;;1.83;0.95;;;;;;;-2.86;91.80;99208.00;4977076;28;20480;-79
2021/12/01 07:42:07;;;;;;;3.20;1.27;;;;;;;-2.86;92.23;99196.66;4974589;28;20037;-78
2021/12/01 07:44:33;;;;;;;2.92;1.17;;;;;;;-2.69;92.28;99201.06;4976165;28;20034;-78
2021/12/01 07:46:59;;;;;;;4.78;1.05;;;;;;;-2.90;91.26;99206.66;4977220;28;20036;-78
2021/12/01 07:49:25;;;;;;;2.75;1.33;;;;;;;-3.26;91.87;99116.44;4976244;28;20033;-78
2021/12/01 07:51:50;;;;;;;1.95;1.00;;;;;;;-3.04;91.44;99159.84;4975916;28;20026;-78
2021/12/01 07:54:16;;;;;;;3.33;1.20;;;;;;;-2.63;91.79;99197.81;4976034;28;20026;-79
2021/12/01 07:56:43;;;;;;;6.25;2.03;;;;;;;-2.69;91.63;99201.06;4976888;28;20039;-78
2021/12/01 07:59:11;;;;;;;2.97;1.67;;;;;;;-2.78;91.35;99196.75;4974872;28;20628;-78
2021/12/01 08:01:36;;;;;;;5.95;3.50;;;;;;;-2.79;91.22;99184.53;4977338;28;20066;-79
2021/12/01 08:04:02;;;;;;;4.32;1.52;;;;;;;-2.80;90.79;99169.72;4975743;28;20055;-78
2021/12/01 08:06:30;;;;;;;2.13;1.10;;;;;;;-2.77;90.66;99187.84;4959252;28;20190;-78
2021/12/01 08:08:59;;;;;;;4.65;1.40;;;;;;;-2.60;91.07;99188.78;4943083;28;20031;-78
2021/12/01 08:11:27;;;;;;;2.47;1.25;;;;;;;-2.66;90.70;99178.88;4977284;28;20042;-79
2021/12/01 08:13:53;;;;;;;4.05;1.52;;;;;;;-2.70;90.57;99175.72;4976928;28;20042;-78
2021/12/01 08:16:19;;;;;;;3.33;0.90;;;;;;;-2.69;90.64;99172.09;4976273;28;20100;-78
2021/12/01 08:18:44;;;;;;;2.28;0.82;;;;;;;-2.67;91.43;99175.41;4977919;28;20520;-78
2021/12/01 08:21:12;;;;;;;2.80;1.13;;;;;;;-2.86;91.02;99158.00;4976997;28;20562;-78
2021/12/01 08:23:38;;;;;;;2.83;0.88;;;;;;;-2.90;90.50;99145.31;4975290;28;20039;-79
2021/12/01 08:26:03;;;;;;;1.38;0.95;;;;;;;-2.91;90.37;99157.66;4991544;28;20073;-78
2021/12/01 08:28:29;;;;;;;2.88;1.00;;;;;;;-2.86;90.62;99163.28;4973523;28;20113;-78
2021/12/01 08:30:55;;;;;;;1.70;0.85;;;;;;;-2.83;90.21;99165.59;4974102;28;20058;-79
2021/12/01 08:33:20;;;;;;;1.98;0.88;;;;;;;-2.77;90.02;99153.63;4976644;28;20041;-78
2021/12/01 08:35:47;;;;;;;2.85;0.82;;;;;;;-3.01;89.70;99121.88;4958585;28;20376;-78
2021/12/01 08:38:13;;;;;;;2.83;1.15;;;;;;;-2.76;90.29;99157.09;4973676;28;20054;-78
2021/12/01 08:40:40;;;;;;;2.65;0.95;;;;;;;-3.05;89.21;99117.91;4959236;28;20121;-79
2021/12/01 08:43:06;;;;;;;3.20;1.10;;;;;;;-2.76;89.36;99154.47;4964997;28;20358;-79
2021/12/01 08:45:32;;;;;;;2.40;1.10;;;;;;;-2.72;89.76;99150.53;4961245;28;20049;-78
2021/12/01 08:47:59;;;;;;;4.68;2.53;;;;;;;-2.79;89.42;99144.22;4973678;28;20034;-78
2021/12/01 08:50:24;;;;;;;3.65;1.75;;;;;;;-2.77;89.33;99135.22;4974998;28;20486;-78
2021/12/01 08:52:49;;;;;;;11.25;4.93;;;;;;;-2.80;89.17;99127.63;4975902;28;20039;-79
2021/12/01 08:55:17;;;;;;;9.93;4.43;;;;;;;-3.02;89.19;99091.28;4975908;28;20034;-78
2021/12/01 08:57:43;;;;;;;8.13;3.60;;;;;;;-2.93;89.06;99098.25;4975348;28;20580;-79
2021/12/01 09:00:09;;;;;;;10.35;4.40;;;;;;;-2.87;88.79;99087.94;4960093;28;20117;-79
2021/12/01 09:02:35;;;;;;;8.93;3.97;;;;;;;-3.03;88.39;99077.31;4976588;28;20042;-79
2021/12/01 09:05:00;;;;;;;5.78;2.00;;;;;;;-2.82;88.31;99100.63;4974938;28;20038;-78
2021/12/01 09:07:26;;;;;;;8.00;3.80;;;;;;;-2.70;88.52;99101.19;4959206;28;20042;-79
2021/12/01 09:09:51;;;;;;;1.20;0.77;;;;;;;-2.73;88.32;99077.81;4943198;28;20031;-79
2021/12/01 09:12:18;;;;;;;2.05;0.73;;;;;;;-2.74;88.02;99081.44;4975988;28;20027;-79
2021/12/01 09:14:44;;;;;;;0.93;0.57;;;;;;;-2.91;87.73;99068.19;4976883;28;20388;-79
2021/12/01 09:17:12;;;;;;;1.23;0.70;;;;;;;-2.99;87.04;99047.06;4977562;28;20413;-79
2021/12/01 09:19:39;;;;;;;1.63;0.77;;;;;;;-2.84;87.64;99063.13;4959886;28;20026;-79
2021/12/01 09:22:06;;;;;;;2.22;0.93;;;;;;;-3.07;86.70;99026.78;4980375;28;20023;-80
2021/12/01 09:24:31;;;;;;;1.50;0.73;;;;;;;-2.89;87.24;99045.13;4981771;28;20121;-79
2021/12/01 09:26:57;;;;;;;1.15;0.70;;;;;;;-2.71;87.23;99052.97;4982278;28;20081;-80
2021/12/01 09:29:22;;;;;;;1.15;0.70;;;;;;;-2.93;87.10;99014.88;4978145;28;20026;-79
2021/12/01 09:31:48;;;;;;;2.63;0.80;;;;;;;-2.83;86.74;99036.63;4976805;28;20487;-79
2021/12/01 09:34:14;;;;;;;1.38;0.85;;;;;;;-2.97;85.73;99024.06;4957888;28;20035;-79
2021/12/01 09:36:40;;;;;;;1.40;0.70;;;;;;;-2.77;86.40;99031.72;4974578;28;20067;-79
2021/12/01 09:39:06;;;;;;;4.63;0.95;;;;;;;-2.92;85.16;99019.13;4958406;28;20062;-79
2021/12/01 09:41:34;;;;;;;1.45;0.60;;;;;;;-2.93;85.37;99006.97;4973729;28;20039;-79
2021/12/01 09:44:00;;;;;;;1.27;0.80;;;;;;;-2.90;85.45;99004.03;4974659;28;20027;-79
2021/12/01 09:46:27;;;;;;;1.52;0.70;;;;;;;-3.15;84.26;98974.13;4975815;28;20035;-79
2021/12/01 09:48:53;;;;;;;0.82;0.50;;;;;;;-2.97;85.32;98984.59;4957792;28;20357;-79
2021/12/01 09:51:18;;;;;;;0.90;0.60;;;;;;;-3.02;85.02;98970.25;4974669;28;20034;-80
2021/12/01 09:53:45;;;;;;;0.60;0.38;;;;;;;-2.98;84.27;98972.41;4975556;28;20034;-79
2021/12/01 09:56:11;;;;;;;1.77;0.85;;;;;;;-2.87;84.24;98985.28;4975081;28;20027;-78
2021/12/01 09:58:37;;;;;;;3.20;1.45;;;;;;;-2.99;84.54;98967.31;4979990;28;20042;-79
2021/12/01 10:01:07;;;;;;;1.58;0.80;;;;;;;-2.80;85.45;98984.66;4977067;28;20023;-78
2021/12/01 10:03:33;;;;;;;2.75;1.17;;;;;;;-2.89;85.67;98971.44;4975704;28;20064;-79
2021/12/01 10:06:14;;;;;;;2.53;1.02;;;;;;;-2.90;86.35;98979.50;4974874;28;20031;-79
2021/12/01 10:08:49;;;;;;;4.50;1.15;;;;;;;-2.98;86.53;98967.16;4974480;28;20027;-79
2021/12/01 10:11:23;;;;;;;1.90;0.82;;;;;;;-2.99;87.02;98954.97;4975946;28;20054;-79
2021/12/01 10:13:49;;;;;;;2.10;0.90;;;;;;;-3.02;87.06;98955.28;4978032;28;20460;-78
2021/12/01 10:16:16;;;;;;;2.10;0.70;;;;;;;-3.13;86.36;98952.94;4991575;28;20031;-79
2021/12/01 10:18:59;;;;;;;3.03;1.20;;;;;;;-3.00;86.54;98947.25;4979261;28;20022;-79
2021/12/01 10:21:36;;;;;;;3.58;0.75;;;;;;;-3.26;86.03;98913.09;4977764;28;20516;-79
2021/12/01 10:24:27;;;;;;;1.90;0.70;;;;;;;-3.03;85.45;98935.22;4979014;28;20142;-79
2021/12/01 10:26:53;;;;;;;1.92;0.80;;;;;;;-3.02;86.16;98931.59;4977251;28;20037;-78
2021/12/01 10:29:22;;;;;;;2.42;0.85;;;;;;;-3.28;85.05;98920.28;4978777;28;20022;-79
2021/12/01 10:31:51;;;;;;;3.38;0.85;;;;;;;-3.17;85.12;98920.03;4980185;28;20019;-79
2021/12/01 10:34:31;;;;;;;1.73;0.70;;;;;;;-3.20;85.30;98905.38;4977923;28;20038;-79
2021/12/01 10:37:08;;;;;;;2.85;0.80;;;;;;;-3.13;84.54;98914.28;4978928;28;20035;-78
2021/12/01 10:39:35;;;;;;;3.55;0.88;;;;;;;-3.19;84.72;98900.94;4978055;28;20033;-79
2021/12/01 10:42:09;;;;;;;0.93;0.50;;;;;;;-3.20;84.43;98880.91;4977981;28;20035;-79
2021/12/01 10:44:37;;;;;;;1.15;0.68;;;;;;;-3.14;84.40;98875.00;4976352;28;20030;-79
2021/12/01 10:47:12;;;;;;;1.85;0.70;;;;;;;-3.20;83.66;98865.94;4976977;28;20034;-79
2021/12/01 10:49:40;;;;;;;;;;;;;;;-3.09;83.16;98870.06;4978280;28;20023;-79
2021/12/01 10:52:12;;;;;;;2.35;0.50;;;;;;;-3.08;83.08;98858.56;4977271;28;19964;-79
2021/12/01 10:54:38;;;;;;;1.35;0.70;;;;;;;-3.19;83.20;98843.06;4976693;28;20031;-79
2021/12/01 10:57:25;;;;;;;2.13;0.80;;;;;;;-2.91;82.93;98872.63;4978487;28;20491;-79
2021/12/01 10:59:56;;;;;;;1.38;0.90;;;;;;;-2.96;83.27;98852.03;4976898;28;20049;-79
2021/12/01 11:02:22;;;;;;;1.65;0.70;;;;;;;-2.81;83.59;98877.72;4977517;28;20028;-79
2021/12/01 11:04:50;;;;;;;1.00;0.63;;;;;;;-2.72;82.82;98882.84;4927007;29;20122;-79
2021/12/01 11:07:32;;;;;;;2.00;0.60;;;;;;;-2.77;82.71;98871.97;4962755;28;20054;-79
2021/12/01 11:10:19;;;;;;;2.20;0.55;;;;;;;-2.69;82.11;98876.44;4978474;28;20030;-79
2021/12/01 11:12:54;;;;;;;1.88;0.85;;;;;;;-2.67;82.91;98870.03;4982729;28;20077;-80
2021/12/01 11:15:33;;;;;;;1.92;0.75;;;;;;;-2.61;83.05;98869.38;4979268;28;20055;-79
2021/12/01 11:17:59;;;;;;;1.38;0.65;;;;;;;-2.53;83.11;98855.38;4977978;28;20062;-79
2021/12/01 11:20:34;;;;;;;1.30;0.70;;;;;;;-2.76;82.48;98820.97;4978476;28;20034;-79
2021/12/01 11:23:14;;;;;;;3.00;0.70;;;;;;;-2.70;82.49;98816.88;4976307;28;20019;-79
2021/12/01 11:25:43;;;;;;;2.42;0.85;;;;;;;-2.69;82.62;98831.69;4958218;28;20027;-79
2021/12/01 11:28:14;;;;;;;1.27;0.60;;;;;;;-2.69;83.14;98834.31;4956718;28;20031;-79
2021/12/01 11:30:41;;;;;;;1.52;0.68;;;;;;;-2.83;82.14;98826.06;4961591;28;20038;-79
2021/12/01 11:33:11;;;;;;;1.67;0.50;;;;;;;-2.83;81.97;98809.47;4976107;28;20081;-78
2021/12/01 11:35:37;;;;;;;1.70;0.77;;;;;;;-2.81;81.75;98809.28;4961401;28;20141;-78
2021/12/01 11:38:03;;;;;;;1.58;0.47;;;;;;;-2.82;82.47;98797.94;4976819;28;20050;-78
2021/12/01 11:40:30;;;;;;;2.22;1.08;;;;;;;-2.72;81.99;98809.13;4983057;28;20026;-79
2021/12/01 11:42:57;;;;;;;4.88;2.75;;;;;;;-2.78;82.11;98793.16;4978473;28;20054;-79